Time;durP1;ratioP1;P1;durP2;ratioP2;P2;SDS_P1;SDS_P2;PMS_P1;PMS_P2;Temp;Humidity;BMP_temperature;BMP_pressure;BME280_temperature;BME280_humidity;BME280_pressure;Samples;Min_cycle;Max_cycle;Signal;HPM_P1;HPM_P2
2022/11/15 00:02:21;;;;;;;8.45;6.68;;;2.80;99.90;;;;;;4650771;30;20051;-82
2022/11/15 00:05:07;;;;;;;8.10;6.85;;;2.40;99.90;;;;;;4665288;30;20062;-82
2022/11/15 00:07:53;;;;;;;9.70;7.20;;;2.50;99.90;;;;;;4665270;30;20054;-82
2022/11/15 00:10:41;;;;;;;11.65;8.13;;;2.80;99.90;;;;;;4665477;30;20054;-81
2022/11/15 00:13:28;;;;;;;9.85;6.55;;;3.00;99.90;;;;;;4652838;30;20058;-82
2022/11/15 00:16:15;;;;;;;9.10;8.20;;;3.10;99.90;;;;;;4665145;30;20051;-83
2022/11/15 00:19:01;;;;;;;8.55;7.65;;;3.20;99.90;;;;;;4665396;30;20414;-82
2022/11/15 00:21:48;;;;;;;6.18;5.57;;;3.20;99.90;;;;;;4665793;30;20486;-82
2022/11/15 00:24:34;;;;;;;6.95;6.20;;;2.60;99.90;;;;;;4649969;30;20084;-82
2022/11/15 00:27:20;;;;;;;5.88;5.38;;;2.20;99.90;;;;;;4665011;30;20428;-82
2022/11/15 00:30:06;;;;;;;7.38;6.63;;;2.10;99.90;;;;;;4665640;30;20051;-82
2022/11/15 00:32:52;;;;;;;7.72;6.95;;;2.30;99.90;;;;;;4665525;30;20054;-82
2022/11/15 00:35:38;;;;;;;8.15;7.10;;;2.60;99.90;;;;;;4665211;30;20057;-82
2022/11/15 00:38:24;;;;;;;8.70;6.65;;;2.80;99.90;;;;;;4650243;30;20513;-82
2022/11/15 00:41:10;;;;;;;7.63;6.57;;;2.80;99.90;;;;;;4649476;30;20058;-82
2022/11/15 00:43:56;;;;;;;8.23;7.25;;;2.60;99.90;;;;;;4665273;30;20559;-82
2022/11/15 00:46:42;;;;;;;8.70;7.88;;;2.40;99.90;;;;;;4664759;30;20062;-82
2022/11/15 00:50:00;;;;;;;8.65;7.10;;;2.30;99.90;;;;;;4665657;30;20058;-82
2022/11/15 00:52:46;;;;;;;6.88;5.68;;;2.30;99.90;;;;;;4665135;30;20053;-82
2022/11/15 00:55:32;;;;;;;7.68;6.97;;;2.20;99.90;;;;;;4664982;30;20054;-82
2022/11/15 00:58:18;;;;;;;5.95;5.28;;;2.20;99.90;;;;;;4665268;30;20059;-82
2022/11/15 01:01:06;;;;;;;11.05;6.70;;;2.20;99.90;;;;;;4650639;30;20382;-82
2022/11/15 01:03:53;;;;;;;9.43;6.55;;;2.20;99.90;;;;;;4672822;30;20045;-82
2022/11/15 01:06:45;;;;;;;7.13;5.40;;;2.20;99.90;;;;;;4673374;30;20061;-82
2022/11/15 01:09:31;;;;;;;6.88;5.53;;;2.20;99.90;;;;;;4673129;30;20083;-82
2022/11/15 01:12:17;;;;;;;8.32;6.90;;;2.40;99.90;;;;;;4668293;30;20050;-82
2022/11/15 01:15:04;;;;;;;6.25;5.68;;;2.80;99.90;;;;;;4652679;30;20046;-82
2022/11/15 01:17:50;;;;;;;7.13;6.32;;;2.60;99.90;;;;;;4641213;30;20058;-82
2022/11/15 01:20:43;;;;;;;10.05;6.47;;;2.20;99.90;;;;;;4655096;30;20062;-82
2022/11/15 01:23:28;;;;;;;7.10;5.35;;;1.90;99.90;;;;;;4680113;30;20050;-82
2022/11/15 01:26:16;;;;;;;7.90;6.28;;;1.80;99.90;;;;;;4655389;30;20062;-82
2022/11/15 01:29:01;;;;;;;8.25;6.22;;;1.90;99.90;;;;;;4665102;30;20523;-82
2022/11/15 01:31:47;;;;;;;7.45;6.63;;;2.00;99.90;;;;;;4702084;30;20065;-82
2022/11/15 01:34:33;;;;;;;8.48;6.25;;;2.10;99.90;;;;;;4675123;30;20060;-82
2022/11/15 01:37:19;;;;;;;6.68;6.05;;;2.30;99.90;;;;;;4686351;30;20049;-82
2022/11/15 01:40:06;;;;;;;8.73;7.32;;;2.40;99.90;;;;;;4702314;30;20061;-82
2022/11/15 01:42:52;;;;;;;7.05;5.45;;;2.60;99.90;;;;;;4686506;30;20061;-82
2022/11/15 01:45:37;;;;;;;7.43;6.68;;;2.60;99.90;;;;;;4702753;30;20054;-83
2022/11/15 01:48:33;;;;;;;9.30;7.13;;;2.60;99.90;;;;;;4688726;30;20413;-82
2022/11/15 01:51:21;;;;;;;6.60;5.40;;;2.60;99.90;;;;;;4686621;30;20511;-82
2022/11/15 01:54:13;;;;;;;10.07;7.00;;;2.70;99.90;;;;;;4702491;30;20057;-82
2022/11/15 01:57:06;;;;;;;5.72;5.13;;;2.70;99.90;;;;;;4701385;30;20053;-82
2022/11/15 01:59:52;;;;;;;8.55;7.07;;;2.80;99.90;;;;;;4671686;30;20046;-82
2022/11/15 02:02:39;;;;;;;9.52;5.53;;;2.80;99.90;;;;;;4652686;30;20063;-82
2022/11/15 02:05:24;;;;;;;8.65;7.18;;;2.80;99.90;;;;;;4664586;30;20402;-82
2022/11/15 02:08:19;;;;;;;7.53;5.40;;;3.00;99.90;;;;;;4684211;30;20058;-82
2022/11/15 02:11:09;;;;;;;8.25;6.22;;;3.10;99.90;;;;;;4681470;30;20054;-82
2022/11/15 02:13:57;;;;;;;5.90;5.40;;;3.20;99.90;;;;;;4666888;30;20058;-82
2022/11/15 02:17:08;;;;;;;4.15;3.72;;;3.20;99.90;;;;;;4674145;30;20057;-82
2022/11/15 02:20:17;;;;;;;6.43;5.18;;;3.20;99.90;;;;;;4668662;30;20069;-83
2022/11/15 02:23:03;;;;;;;;;;;3.20;99.90;;;;;;4684434;30;20046;-82
2022/11/15 02:26:07;;;;;;;4.60;4.20;;;3.20;99.90;;;;;;4671567;30;19927;-83
2022/11/15 02:29:04;;;;;;;5.07;4.65;;;3.20;99.90;;;;;;4684141;30;20060;-82
2022/11/15 02:32:11;;;;;;;5.82;5.03;;;2.90;99.90;;;;;;4684274;30;20049;-83
2022/11/15 02:35:05;;;;;;;4.80;4.40;;;2.60;99.90;;;;;;4684109;30;20524;-82
2022/11/15 02:38:02;;;;;;;6.32;4.38;;;2.50;99.90;;;;;;4684446;30;20050;-82
2022/11/15 02:41:12;;;;;;;5.15;3.92;;;2.50;99.90;;;;;;4683644;30;20057;-82
2022/11/15 02:44:21;;;;;;;5.10;4.22;;;2.50;99.90;;;;;;4651160;30;20055;-82
2022/11/15 02:50:23;;;;;;;6.57;5.13;;;2.60;99.90;;;;;;4667044;30;20055;-83
2022/11/15 02:53:09;;;;;;;7.50;5.47;;;2.70;99.90;;;;;;4650999;30;20067;-82
2022/11/15 02:55:56;;;;;;;6.53;5.35;;;2.70;99.90;;;;;;4666700;30;20066;-82
2022/11/15 02:59:15;;;;;;;6.22;5.43;;;2.70;99.90;;;;;;4666598;30;20066;-82
2022/11/15 03:02:28;;;;;;;3.88;3.58;;;2.80;99.90;;;;;;4647334;30;20066;-82
2022/11/15 03:05:34;;;;;;;6.57;5.95;;;2.80;99.90;;;;;;4650329;30;20502;-82
2022/11/15 03:08:45;;;;;;;4.50;4.20;;;2.80;99.90;;;;;;4666298;30;20072;-82
2022/11/15 03:11:36;;;;;;;7.82;5.20;;;2.90;99.90;;;;;;4663851;30;20050;-82
2022/11/15 03:14:30;;;;;;;4.90;4.47;;;2.90;99.90;;;;;;4668326;30;20055;-82
2022/11/15 03:17:23;;;;;;;5.40;4.90;;;2.90;99.90;;;;;;4667368;30;20058;-82
2022/11/15 03:20:13;;;;;;;4.53;4.07;;;2.90;99.90;;;;;;4655936;30;20050;-82
2022/11/15 03:23:09;;;;;;;4.65;3.75;;;2.90;99.90;;;;;;4683264;30;20505;-82
2022/11/15 03:25:57;;;;;;;5.05;4.13;;;2.90;99.90;;;;;;4683626;30;20433;-82
2022/11/15 03:29:03;;;;;;;5.50;5.03;;;2.90;99.90;;;;;;4683221;30;20054;-82
2022/11/15 03:31:57;;;;;;;4.38;3.63;;;3.00;99.90;;;;;;4683174;30;20076;-82
2022/11/15 03:34:52;;;;;;;5.10;4.13;;;2.90;99.90;;;;;;4683130;30;20053;-82
2022/11/15 03:38:13;;;;;;;4.53;3.83;;;2.90;99.90;;;;;;4667923;30;20076;-82
2022/11/15 03:41:01;;;;;;;6.87;3.90;;;3.00;99.90;;;;;;4654103;30;20497;-82
2022/11/15 03:44:09;;;;;;;4.88;4.40;;;3.10;99.90;;;;;;4667516;30;20304;-82
2022/11/15 03:47:36;;;;;;;8.48;5.05;;;3.20;99.90;;;;;;4669750;30;20065;-83
2022/11/15 03:50:24;;;;;;;5.10;4.60;;;2.70;99.90;;;;;;4655995;30;20058;-82
2022/11/15 03:53:10;;;;;;;5.15;4.20;;;2.20;99.90;;;;;;4655293;30;20050;-82
2022/11/15 03:55:56;;;;;;;4.60;4.15;;;1.90;99.90;;;;;;4681317;30;20054;-82
2022/11/15 03:58:42;;;;;;;5.25;4.80;;;2.10;99.90;;;;;;4659549;30;20058;-81
2022/11/15 04:01:28;;;;;;;6.85;4.30;;;2.40;99.90;;;;;;4663227;30;20050;-82
2022/11/15 04:04:14;;;;;;;3.72;3.42;;;2.30;99.90;;;;;;4655058;30;20054;-82
2022/11/15 04:07:00;;;;;;;5.60;3.97;;;1.80;99.90;;;;;;4663210;30;20057;-82
2022/11/15 04:10:05;;;;;;;4.75;4.15;;;1.70;99.90;;;;;;4658069;30;20062;-82
2022/11/15 04:12:51;;;;;;;4.28;3.88;;;1.80;99.90;;;;;;4666843;30;20061;-82
2022/11/15 04:15:37;;;;;;;6.10;5.03;;;1.90;99.90;;;;;;4669617;30;20053;-82
2022/11/15 04:18:29;;;;;;;6.22;5.28;;;2.00;99.90;;;;;;4655736;30;20077;-82
2022/11/15 04:24:20;;;;;;;5.18;4.75;;;2.20;99.90;;;;;;4667029;30;20075;-82
2022/11/15 04:27:06;;;;;;;11.70;4.75;;;2.30;99.90;;;;;;4681078;30;20517;-82
2022/11/15 04:29:51;;;;;;;5.60;4.40;;;2.40;99.90;;;;;;4669858;30;20058;-82
2022/11/15 04:32:37;;;;;;;6.55;5.32;;;2.40;99.90;;;;;;4682348;30;20509;-82
2022/11/15 04:35:23;;;;;;;5.05;4.65;;;2.30;99.90;;;;;;4637737;30;20051;-82
2022/11/15 04:38:10;;;;;;;5.40;4.93;;;2.20;99.90;;;;;;4665344;30;20428;-82
2022/11/15 04:40:56;;;;;;;6.15;5.20;;;2.30;99.90;;;;;;4665184;30;20066;-82
2022/11/15 04:43:43;;;;;;;8.13;5.25;;;2.30;99.90;;;;;;4649895;30;20043;-82
2022/11/15 04:46:29;;;;;;;5.03;4.43;;;2.40;99.90;;;;;;4665543;30;20486;-82
2022/11/15 04:49:14;;;;;;;4.47;4.05;;;2.30;99.90;;;;;;4634924;30;20054;-82
2022/11/15 04:52:01;;;;;;;5.57;4.85;;;2.40;99.90;;;;;;4652320;30;20426;-82
2022/11/15 04:54:47;;;;;;;6.38;5.63;;;2.40;99.90;;;;;;4638082;30;20067;-82
2022/11/15 04:57:32;;;;;;;4.18;3.88;;;2.40;99.90;;;;;;4650080;30;20069;-82
2022/11/15 05:00:19;;;;;;;4.80;4.40;;;2.40;99.90;;;;;;4649683;30;20066;-82
2022/11/15 05:06:09;;;;;;;5.53;4.63;;;2.50;99.90;;;;;;4665504;30;20054;-82
2022/11/15 05:08:55;;;;;;;11.85;4.22;;;2.50;99.90;;;;;;4665106;30;20075;-82
2022/11/15 05:11:42;;;;;;;4.22;3.85;;;2.40;99.90;;;;;;4664136;30;20042;-82
2022/11/15 05:14:29;;;;;;;5.75;4.63;;;2.40;99.90;;;;;;4682642;30;20046;-82
2022/11/15 05:17:18;;;;;;;3.50;3.20;;;2.40;99.90;;;;;;4665749;30;20057;-82
2022/11/15 05:20:05;;;;;;;4.63;3.90;;;2.30;99.90;;;;;;4681176;30;20054;-82
2022/11/15 05:22:52;;;;;;;4.47;4.07;;;2.20;99.90;;;;;;4664792;30;20057;-82
2022/11/15 05:25:38;;;;;;;4.78;4.35;;;2.20;99.90;;;;;;4664419;30;20065;-82
2022/11/15 05:28:24;;;;;;;4.20;3.70;;;2.20;99.90;;;;;;4649365;30;20053;-83
2022/11/15 05:31:13;;;;;;;5.65;4.68;;;2.10;99.90;;;;;;4649420;30;20054;-83
2022/11/15 05:34:01;;;;;;;4.75;3.55;;;1.80;99.90;;;;;;4649892;30;20065;-83
2022/11/15 05:36:48;;;;;;;4.82;4.43;;;1.40;99.90;;;;;;4664321;30;20065;-83
2022/11/15 05:39:33;;;;;;;6.22;4.20;;;1.20;99.90;;;;;;4664955;30;20054;-83
2022/11/15 05:42:20;;;;;;;4.28;3.88;;;1.00;99.90;;;;;;4649836;30;20070;-83
2022/11/15 05:45:08;;;;;;;4.13;3.72;;;1.00;99.90;;;;;;4649400;30;20062;-83
2022/11/15 05:47:57;;;;;;;7.85;4.68;;;1.00;99.90;;;;;;4652426;30;20057;-83
2022/11/15 05:50:46;;;;;;;4.35;3.42;;;1.10;99.90;;;;;;4654136;30;20058;-84
2022/11/15 05:53:32;;;;;;;4.10;3.78;;;1.30;99.90;;;;;;4651105;30;20403;-84
2022/11/15 05:56:19;;;;;;;5.82;4.20;;;1.60;99.90;;;;;;4649573;30;20057;-85
2022/11/15 05:59:07;;;;;;;4.97;4.03;;;1.70;99.90;;;;;;4650847;30;20061;-85
2022/11/15 06:01:53;;;;;;;5.93;5.13;;;1.80;99.90;;;;;;4652889;30;20055;-85
2022/11/15 06:04:39;;;;;;;4.40;3.58;;;1.80;99.90;;;;;;4652185;30;20053;-86
2022/11/15 06:07:25;;;;;;;6.55;4.93;;;1.80;99.90;;;;;;4651760;30;20047;-85
2022/11/15 06:10:15;;;;;;;4.13;3.65;;;1.80;99.90;;;;;;4641336;30;20054;-86
2022/11/15 06:13:08;;;;;;;4.03;3.72;;;1.80;99.90;;;;;;4651663;30;20061;-86
2022/11/15 06:15:58;;;;;;;6.75;4.78;;;1.80;99.90;;;;;;4639403;30;20054;-87
2022/11/15 06:19:20;;;;;;;6.70;3.97;;;1.90;99.90;;;;;;4661210;30;20577;-87
2022/11/15 06:22:06;;;;;;;12.48;7.18;;;2.00;99.90;;;;;;4650698;30;20061;-86
2022/11/15 06:24:52;;;;;;;3.60;3.40;;;2.10;99.90;;;;;;4670701;30;20053;-86
2022/11/15 06:27:38;;;;;;;5.85;3.92;;;2.20;99.90;;;;;;4657131;30;20042;-86
2022/11/15 06:30:25;;;;;;;6.45;5.82;;;2.20;99.90;;;;;;4672043;30;20063;-87
2022/11/15 06:33:12;;;;;;;6.75;5.68;;;2.20;99.90;;;;;;4666952;30;20057;-88
2022/11/15 06:36:03;;;;;;;4.28;3.83;;;2.20;99.90;;;;;;4652357;30;20058;-88
2022/11/15 06:38:53;;;;;;;8.07;6.05;;;2.20;99.90;;;;;;4656402;30;20054;-86
2022/11/15 06:42:02;;;;;;;5.82;4.82;;;2.30;99.90;;;;;;4682999;30;20447;-84
2022/11/15 06:44:49;;;;;;;8.07;6.05;;;2.20;99.90;;;;;;4668603;30;20167;-84
2022/11/15 06:47:47;;;;;;;7.53;4.65;;;2.20;99.90;;;;;;4667854;30;20056;-84
2022/11/15 06:50:34;;;;;;;4.82;4.13;;;2.30;99.90;;;;;;4657038;30;20076;-84
2022/11/15 06:53:20;;;;;;;5.05;4.53;;;2.50;99.90;;;;;;4654050;30;20054;-84
2022/11/15 06:56:07;;;;;;;3.88;3.15;;;2.50;99.90;;;;;;4667789;30;20050;-84
2022/11/15 06:58:53;;;;;;;9.52;8.32;;;2.60;99.90;;;;;;4654234;30;20505;-84
2022/11/15 07:01:40;;;;;;;7.50;4.85;;;2.60;99.90;;;;;;4650663;30;20050;-84
2022/11/15 07:04:26;;;;;;;5.07;4.50;;;2.60;99.90;;;;;;4652770;30;20053;-84
2022/11/15 07:07:13;;;;;;;5.70;5.20;;;2.60;99.90;;;;;;4669972;30;20050;-84
2022/11/15 07:09:59;;;;;;;3.75;3.45;;;2.60;99.90;;;;;;4655998;30;20058;-85
2022/11/15 07:12:49;;;;;;;5.03;3.92;;;2.70;99.90;;;;;;4667222;30;20046;-85
2022/11/15 07:19:35;;;;;;;4.30;3.88;;;2.60;99.90;;;;;;4664064;30;20050;-85
2022/11/15 07:22:31;;;;;;;4.25;3.85;;;2.50;99.90;;;;;;4656432;30;20058;-86
2022/11/15 07:25:17;;;;;;;6.57;4.25;;;2.60;99.90;;;;;;4638279;30;20410;-86
2022/11/15 07:28:04;;;;;;;7.50;3.83;;;2.80;99.90;;;;;;4666964;30;20542;-86
2022/11/15 07:30:51;;;;;;;6.20;5.65;;;2.90;99.90;;;;;;4652018;30;20058;-86
2022/11/15 07:33:38;;;;;;;4.15;3.75;;;3.00;99.90;;;;;;4674353;30;20062;-86
2022/11/15 07:36:28;;;;;;;5.15;4.75;;;3.20;99.90;;;;;;4670173;30;20046;-86
2022/11/15 07:40:33;;;;;;;5.68;3.53;;;3.30;99.90;;;;;;4616443;30;20059;-86
2022/11/15 07:48:59;;;;;;;4.47;3.65;;;3.60;99.90;;;;;;4465624;31;20054;-87
2022/11/15 08:03:30;;;;;;;7.15;4.65;;;4.10;99.90;;;;;;4555526;31;20074;-86
2022/11/15 08:22:36;;;;;;;4.47;4.07;;;4.80;99.90;;;;;;4524931;31;20080;-87
2022/11/15 08:26:37;;;;;;;4.90;3.58;;;5.10;99.90;;;;;;4502827;31;20080;-86
2022/11/15 09:15:15;;;;;;;3.28;3.00;;;7.00;99.90;;;;;;4518005;31;20042;-87
2022/11/15 09:18:22;;;;;;;4.20;3.67;;;7.40;99.90;;;;;;4540703;31;20065;-87
2022/11/15 09:22:05;;;;;;;;;;;;;;;;;;;;;
2022/11/15 09:25:45;;;;;;;7.38;5.75;;;8.10;99.90;;;;;;4588393;31;20064;-86
2022/11/15 09:29:24;;;;;;;7.65;6.93;;;8.40;99.90;;;;;;4610403;31;20491;-86
2022/11/15 09:32:35;;;;;;;19.80;17.85;;;8.40;99.90;;;;;;4588884;31;20435;-87
2022/11/15 09:35:29;;;;;;;9.18;7.18;;;8.30;99.90;;;;;;4600035;31;20060;-86
2022/11/15 09:38:31;;;;;;;;;;;;;;;;;;;;;
2022/11/15 09:42:13;;;;;;;3.90;3.28;;;8.40;99.90;;;;;;4574213;31;20055;-87
2022/11/15 09:46:05;;;;;;;4.43;3.70;;;8.50;99.90;;;;;;4545750;31;20160;-87
2022/11/15 09:49:17;;;;;;;4.50;3.55;;;8.60;99.90;;;;;;4580824;31;20053;-87
2022/11/15 09:52:21;;;;;;;6.70;4.15;;;8.70;99.90;;;;;;4571587;31;20063;-86
2022/11/15 09:54:55;;;;;;;6.88;4.93;;;8.80;99.90;;;;;;4562065;31;20063;-86
2022/11/15 09:58:00;;;;;;;4.22;3.85;;;8.80;99.90;;;;;;4568316;31;20052;-86
2022/11/15 10:00:42;;;;;;;4.68;3.42;;;8.90;99.90;;;;;;4582443;31;20107;-86
2022/11/15 10:03:17;;;;;;;3.58;3.28;;;9.00;99.90;;;;;;4598849;30;20538;-86
2022/11/15 10:05:51;;;;;;;4.05;3.65;;;9.00;99.90;;;;;;4604830;30;20059;-86
2022/11/15 10:08:50;;;;;;;4.10;3.70;;;9.10;99.90;;;;;;4617628;30;20150;-86
2022/11/15 10:11:35;;;;;;;3.72;3.30;;;9.30;99.90;;;;;;4605127;30;20058;-86
2022/11/15 10:14:14;;;;;;;4.20;3.78;;;9.60;99.90;;;;;;4618663;30;20085;-86
2022/11/15 10:16:54;;;;;;;4.43;4.03;;;9.60;99.90;;;;;;4617521;30;20062;-85
2022/11/15 10:20:08;;;;;;;5.93;4.22;;;9.60;99.90;;;;;;4634386;30;20050;-86
2022/11/15 10:23:17;;;;;;;5.57;4.35;;;9.80;99.90;;;;;;4637925;30;20063;-87
2022/11/15 10:25:47;;;;;;;4.40;3.22;;;9.80;99.90;;;;;;4632220;30;20059;-85
2022/11/15 10:28:22;;;;;;;3.88;3.08;;;9.90;99.90;;;;;;4642335;30;20593;-85
2022/11/15 10:30:53;;;;;;;3.50;3.05;;;9.90;99.90;;;;;;4662859;30;20062;-83
2022/11/15 10:33:36;;;;;;;3.65;3.42;;;10.00;99.90;;;;;;4649989;30;20066;-86
2022/11/15 10:36:20;;;;;;;5.10;4.00;;;10.00;99.90;;;;;;4657624;30;20062;-86
2022/11/15 10:39:17;;;;;;;5.82;3.45;;;10.00;99.90;;;;;;4637442;30;20058;-87
2022/11/15 10:41:51;;;;;;;4.80;4.25;;;10.10;99.90;;;;;;4647260;30;20116;-89
2022/11/15 10:44:29;;;;;;;6.00;3.83;;;10.20;99.90;;;;;;4646329;30;20074;-88
2022/11/15 10:47:33;;;;;;;4.32;3.92;;;10.40;99.90;;;;;;4652689;30;20066;-88
2022/11/15 10:50:33;;;;;;;6.07;3.55;;;10.70;99.90;;;;;;4637689;30;20081;-88
2022/11/15 10:53:02;;;;;;;4.35;3.88;;;10.80;99.90;;;;;;4663905;30;20050;-88
2022/11/15 10:55:32;;;;;;;3.70;3.25;;;10.80;99.90;;;;;;4647719;30;20050;-88
2022/11/15 10:58:44;;;;;;;4.25;3.85;;;10.80;99.90;;;;;;4631800;30;20063;-89
2022/11/15 11:01:29;;;;;;;3.38;2.75;;;11.00;99.90;;;;;;4618370;30;20577;-88
2022/11/15 11:04:11;;;;;;;2.72;2.53;;;11.20;99.90;;;;;;4618178;30;20514;-88
2022/11/15 11:06:50;;;;;;;2.83;2.17;;;11.20;99.90;;;;;;4632931;30;20063;-80
2022/11/15 11:09:35;;;;;;;2.30;1.90;;;11.10;99.90;;;;;;4658239;30;20058;-88
2022/11/15 11:12:05;;;;;;;3.90;2.67;;;11.10;99.90;;;;;;4664269;30;20069;-86
2022/11/15 11:14:35;;;;;;;16.92;10.55;;;11.20;99.90;;;;;;4634918;30;20062;-89
2022/11/15 11:17:40;;;;;;;3.92;3.40;;;11.20;99.90;;;;;;4665453;30;20051;-88
2022/11/15 11:20:34;;;;;;;4.03;2.45;;;11.20;99.90;;;;;;4664407;30;20058;-86
2022/11/15 11:23:37;;;;;;;4.68;4.28;;;11.20;99.90;;;;;;4675412;30;20070;-86
2022/11/15 11:26:26;;;;;;;3.42;3.03;;;11.30;99.90;;;;;;4647864;30;20062;-86
2022/11/15 11:29:20;;;;;;;3.17;2.75;;;11.30;99.90;;;;;;4665071;30;20069;-93
2022/11/15 11:31:51;;;;;;;3.90;2.80;;;11.30;99.90;;;;;;4651162;30;20737;-91
2022/11/15 11:34:37;;;;;;;5.03;3.43;;;11.40;99.90;;;;;;4650874;30;20069;-91
2022/11/15 11:37:32;;;;;;;3.08;2.42;;;11.60;99.90;;;;;;4678188;30;20309;-86
2022/11/15 11:39:59;;;;;;;3.83;3.45;;;11.70;99.90;;;;;;4671855;30;20054;-85
2022/11/15 11:42:32;;;;;;;3.15;2.85;;;11.80;99.90;;;;;;4662718;30;20059;-85
2022/11/15 11:45:12;;;;;;;3.03;2.53;;;11.90;99.90;;;;;;4662222;30;20074;-85
2022/11/15 11:47:46;;;;;;;3.30;3.00;;;12.00;99.90;;;;;;4661927;30;20057;-85
2022/11/15 11:50:32;;;;;;;4.22;3.10;;;12.10;99.90;;;;;;4662701;30;20099;-85
2022/11/15 11:53:32;;;;;;;10.13;6.00;;;12.20;99.90;;;;;;4662117;30;20505;-85
2022/11/15 11:56:15;;;;;;;3.15;2.60;;;12.50;99.90;;;;;;4662217;30;20069;-85
2022/11/15 11:58:45;;;;;;;4.10;3.50;;;12.50;99.90;;;;;;4662061;30;20054;-86
2022/11/15 12:01:21;;;;;;;2.92;2.58;;;12.40;99.90;;;;;;4656795;30;20059;-86
2022/11/15 12:04:16;;;;;;;3.55;3.05;;;12.50;99.90;;;;;;4660986;30;20057;-85
2022/11/15 12:06:58;;;;;;;3.20;2.90;;;12.60;99.90;;;;;;4660289;30;20059;-86
2022/11/15 12:09:57;;;;;;;2.97;2.78;;;12.60;99.90;;;;;;4661760;30;20058;-90
2022/11/15 12:12:41;;;;;;;6.65;3.83;;;12.70;99.90;;;;;;4660828;30;20062;-91
2022/11/15 12:15:09;;;;;;;3.40;2.58;;;12.70;99.90;;;;;;4647020;30;20378;-87
2022/11/15 12:17:39;;;;;;;6.45;3.05;;;12.80;99.90;;;;;;4647361;30;20077;-89
2022/11/15 12:20:23;;;;;;;3.72;2.10;;;12.80;99.90;;;;;;4633267;30;20137;-89
2022/11/15 12:22:59;;;;;;;3.15;2.35;;;12.90;99.90;;;;;;4647418;30;20054;-89
2022/11/15 12:25:32;;;;;;;4.07;3.03;;;12.70;99.90;;;;;;4648394;30;20066;-90
2022/11/15 12:28:22;;;;;;;4.07;2.97;;;12.60;99.90;;;;;;4646920;30;20530;-90
2022/11/15 12:30:59;;;;;;;3.53;2.92;;;12.50;99.90;;;;;;4633029;30;20059;-87
2022/11/15 12:33:34;;;;;;;6.00;3.28;;;12.40;99.90;;;;;;4658848;30;20061;-89
2022/11/15 12:36:10;;;;;;;2.75;2.55;;;12.50;99.90;;;;;;4646406;30;20390;-90
2022/11/15 12:38:54;;;;;;;2.47;2.28;;;12.50;99.90;;;;;;4661015;30;20783;-88
2022/11/15 12:41:30;;;;;;;3.53;3.20;;;12.50;99.90;;;;;;4646251;30;20069;-90
2022/11/15 12:43:59;;;;;;;3.15;2.90;;;12.50;99.90;;;;;;4660536;30;20421;-88
2022/11/15 12:46:29;;;;;;;4.25;3.85;;;12.60;99.90;;;;;;4662710;30;20054;-89
2022/11/15 12:49:23;;;;;;;5.18;2.63;;;12.50;99.90;;;;;;4661621;30;20085;-89
2022/11/15 12:51:52;;;;;;;7.03;3.17;;;12.50;99.90;;;;;;4661342;30;20047;-90
2022/11/15 12:54:22;;;;;;;3.20;2.90;;;12.50;99.90;;;;;;4661782;30;20494;-88
2022/11/15 12:57:07;;;;;;;3.40;3.07;;;12.50;99.90;;;;;;4663246;30;20525;-90
2022/11/15 13:00:06;;;;;;;3.00;2.58;;;12.60;99.90;;;;;;4665085;30;20298;-89
2022/11/15 13:02:48;;;;;;;3.50;2.95;;;12.60;99.90;;;;;;4664681;30;20548;-89
2022/11/15 13:05:15;;;;;;;7.32;2.58;;;12.70;99.90;;;;;;4635631;30;20890;-88
2022/11/15 13:07:44;;;;;;;3.72;3.33;;;12.80;99.90;;;;;;4664606;30;20057;-89
2022/11/15 13:10:29;;;;;;;6.60;2.88;;;12.70;99.90;;;;;;4662785;30;20058;-92
2022/11/15 13:13:43;;;;;;;3.63;3.30;;;12.80;99.90;;;;;;4648380;30;20069;-90
2022/11/15 13:16:17;;;;;;;4.05;3.65;;;12.70;99.90;;;;;;4638784;30;20051;-90
2022/11/15 13:18:54;;;;;;;3.72;2.80;;;12.70;99.90;;;;;;4649033;30;20066;-89
2022/11/15 13:24:14;;;;;;;5.30;4.18;;;12.70;99.90;;;;;;4632732;30;20058;-89
2022/11/15 13:26:45;;;;;;;3.45;2.90;;;12.60;99.90;;;;;;4647805;30;20062;-90
2022/11/15 13:29:18;;;;;;;6.78;2.88;;;12.50;99.90;;;;;;4632848;30;20110;-89
2022/11/15 13:31:46;;;;;;;5.90;5.38;;;12.40;99.90;;;;;;4632531;30;20051;-88
2022/11/15 13:34:24;;;;;;;6.32;5.30;;;12.30;99.90;;;;;;4659642;30;20502;-88
2022/11/15 13:37:32;;;;;;;3.30;3.00;;;12.40;99.90;;;;;;4663400;30;20888;-89
2022/11/15 13:40:27;;;;;;;4.78;3.00;;;12.40;99.90;;;;;;4664374;30;20852;-88
2022/11/15 13:42:55;;;;;;;5.05;3.30;;;12.40;99.90;;;;;;4649263;30;20062;-88
2022/11/15 13:45:23;;;;;;;8.80;5.05;;;12.40;99.90;;;;;;4649955;30;20069;-88
2022/11/15 13:47:56;;;;;;;23.63;13.35;;;12.40;99.90;;;;;;4635472;30;20061;-88
2022/11/15 13:50:35;;;;;;;4.30;3.63;;;12.50;99.90;;;;;;4663930;30;20054;-88
2022/11/15 13:53:04;;;;;;;5.80;4.95;;;12.40;99.90;;;;;;4665049;30;20062;-90
2022/11/15 13:55:32;;;;;;;5.85;4.15;;;12.40;99.90;;;;;;4650173;30;20047;-89
2022/11/15 13:58:06;;;;;;;4.13;3.38;;;12.30;99.90;;;;;;4649383;30;20062;-88
2022/11/15 14:00:40;;;;;;;9.93;6.93;;;12.30;99.90;;;;;;4648824;30;20054;-89
2022/11/15 14:03:29;;;;;;;6.38;4.85;;;12.20;99.90;;;;;;4648452;30;20057;-90
2022/11/15 14:06:12;;;;;;;5.75;4.05;;;12.10;99.90;;;;;;4649708;30;20062;-89
2022/11/15 14:08:42;;;;;;;6.05;4.65;;;12.10;99.90;;;;;;4633717;30;20065;-89
2022/11/15 14:11:20;;;;;;;16.00;12.07;;;12.00;99.90;;;;;;4648763;30;20073;-88
2022/11/15 14:14:23;;;;;;;4.90;4.50;;;11.90;99.90;;;;;;4662673;30;20058;-89
2022/11/15 14:16:55;;;;;;;5.35;4.72;;;12.00;99.90;;;;;;4636085;30;20502;-88
2022/11/15 14:19:26;;;;;;;4.65;4.20;;;11.80;99.90;;;;;;4662741;30;20058;-89
2022/11/15 14:22:15;;;;;;;6.30;4.35;;;11.80;99.90;;;;;;4648657;30;20750;-88
2022/11/15 14:25:05;;;;;;;6.07;4.90;;;11.80;99.90;;;;;;4662401;30;20442;-87
2022/11/15 14:27:33;;;;;;;5.15;4.65;;;11.70;99.90;;;;;;4647477;30;20054;-88
2022/11/15 14:30:01;;;;;;;6.25;5.00;;;11.60;99.90;;;;;;4663020;30;20510;-87
2022/11/15 14:32:41;;;;;;;8.07;4.68;;;11.50;99.90;;;;;;4666633;30;20051;-91
2022/11/15 14:35:18;;;;;;;11.63;5.40;;;11.40;99.90;;;;;;4652379;30;20069;-91
2022/11/15 14:37:46;;;;;;;5.28;4.32;;;11.30;99.90;;;;;;4653030;30;20486;-91
2022/11/15 14:40:16;;;;;;;5.50;4.70;;;11.20;99.90;;;;;;4666729;30;20055;-92
2022/11/15 14:42:46;;;;;;;4.10;3.65;;;11.10;99.90;;;;;;4638900;30;20059;-91
2022/11/15 14:45:19;;;;;;;6.55;4.65;;;11.10;99.90;;;;;;4653461;30;20058;-91
2022/11/15 14:47:47;;;;;;;5.72;4.00;;;11.00;99.90;;;;;;4647933;30;20062;-88
2022/11/15 14:50:18;;;;;;;5.43;4.78;;;11.00;99.90;;;;;;4648529;30;20062;-90
2022/11/15 14:52:46;;;;;;;6.25;4.53;;;10.90;99.90;;;;;;4658956;30;20061;-90
2022/11/15 14:55:50;;;;;;;5.18;4.55;;;10.80;99.90;;;;;;4661724;30;20050;-90
2022/11/15 14:58:18;;;;;;;9.68;5.85;;;10.70;99.90;;;;;;4654394;30;20058;-91
2022/11/15 15:00:46;;;;;;;7.28;5.07;;;10.70;99.90;;;;;;4645599;30;20423;-91
2022/11/15 15:03:13;;;;;;;6.13;4.65;;;10.60;99.90;;;;;;4646341;30;20062;-91
2022/11/15 15:05:42;;;;;;;8.00;5.95;;;10.40;99.90;;;;;;4660243;30;20507;-91
2022/11/15 15:08:10;;;;;;;7.43;4.28;;;9.90;99.90;;;;;;4659125;30;20059;-90
2022/11/15 15:10:41;;;;;;;5.30;4.60;;;9.50;99.90;;;;;;4645260;30;20063;-91
2022/11/15 15:13:14;;;;;;;5.10;4.43;;;9.20;99.90;;;;;;4645916;30;20441;-90
2022/11/15 15:15:42;;;;;;;6.30;4.75;;;8.90;99.90;;;;;;4660908;30;20047;-90
2022/11/15 15:18:18;;;;;;;4.85;4.40;;;8.70;99.90;;;;;;4644970;30;20396;-90
2022/11/15 15:20:57;;;;;;;4.30;3.88;;;8.30;99.90;;;;;;4648125;30;20054;-91
2022/11/15 15:23:26;;;;;;;4.03;3.63;;;8.00;99.90;;;;;;4648208;30;20046;-90
2022/11/15 15:25:54;;;;;;;5.97;3.92;;;7.80;99.90;;;;;;4648783;30;20063;-92
2022/11/15 15:28:21;;;;;;;5.97;4.18;;;7.70;99.90;;;;;;4659328;30;20057;-90
2022/11/15 15:30:49;;;;;;;11.73;3.38;;;7.60;99.90;;;;;;4664777;30;20065;-90
2022/11/15 15:33:16;;;;;;;4.32;3.80;;;7.70;99.90;;;;;;4665174;30;20069;-90
2022/11/15 15:35:44;;;;;;;6.88;5.00;;;7.70;99.90;;;;;;4678908;30;20054;-89
2022/11/15 15:38:12;;;;;;;6.78;4.75;;;7.70;99.90;;;;;;4663047;30;20058;-90
2022/11/15 15:40:39;;;;;;;8.07;6.32;;;7.80;99.90;;;;;;4633505;30;20663;-91
2022/11/15 15:43:08;;;;;;;7.53;5.28;;;7.70;99.90;;;;;;4661678;30;20058;-90
2022/11/15 15:45:40;;;;;;;4.88;4.32;;;7.50;99.90;;;;;;4661948;30;20058;-92
2022/11/15 15:48:16;;;;;;;7.38;6.07;;;7.20;99.90;;;;;;4661392;30;20050;-90
2022/11/15 15:50:44;;;;;;;5.53;4.90;;;7.00;99.90;;;;;;4644091;30;20070;-90
2022/11/15 15:53:13;;;;;;;5.82;4.10;;;7.00;99.90;;;;;;4632609;30;20569;-89
2022/11/15 15:55:40;;;;;;;5.50;4.18;;;6.90;99.90;;;;;;4658452;30;20822;-90
2022/11/15 15:58:08;;;;;;;4.47;4.07;;;6.90;99.90;;;;;;4661409;30;20070;-89
2022/11/15 16:00:36;;;;;;;6.57;4.68;;;6.90;99.90;;;;;;4660996;30;20054;-89
2022/11/15 16:03:04;;;;;;;9.48;5.15;;;6.90;99.90;;;;;;4660844;30;20058;-89
2022/11/15 16:05:31;;;;;;;6.22;5.63;;;6.90;99.90;;;;;;4661763;30;20054;-90
2022/11/15 16:07:59;;;;;;;8.70;5.88;;;6.90;99.90;;;;;;4658155;30;20054;-88
2022/11/15 16:10:29;;;;;;;6.18;4.40;;;6.80;99.90;;;;;;4661309;30;20510;-89
2022/11/15 16:12:57;;;;;;;7.28;3.47;;;6.50;99.90;;;;;;4661758;30;20058;-89